Time;durP1;ratioP1;P1;durP2;ratioP2;P2;SDS_P1;SDS_P2;PMS_P1;PMS_P2;Temp;Humidity;BMP_temperature;BMP_pressure;BME280_temperature;BME280_humidity;BME280_pressure;Samples;Min_cycle;Max_cycle;Signal;HPM_P1;HPM_P2
2022/06/02 00:00:09;;;;;;;3.90;2.30;;;23.00;53.50;;;;;;6214637;28;81423;-68
2022/06/02 00:03:12;;;;;;;5.07;2.65;;;23.00;53.20;;;;;;6208151;28;80050;-68
2022/06/02 00:06:13;;;;;;;4.30;2.45;;;22.90;53.40;;;;;;6224531;28;81426;-68
2022/06/02 00:09:13;;;;;;;4.47;2.28;;;23.00;53.50;;;;;;6208726;28;80294;-69
2022/06/02 00:12:14;;;;;;;3.97;2.58;;;23.00;53.30;;;;;;6198498;28;81468;-68
2022/06/02 00:15:14;;;;;;;2.42;2.03;;;23.00;53.40;;;;;;6212609;28;80398;-70
2022/06/02 00:18:15;;;;;;;4.28;2.58;;;23.00;53.10;;;;;;6224714;28;80717;-69
2022/06/02 00:21:15;;;;;;;6.82;3.03;;;23.00;53.00;;;;;;6229773;28;80690;-67
2022/06/02 00:24:17;;;;;;;2.95;2.22;;;23.00;53.20;;;;;;6219672;28;81062;-69
2022/06/02 00:27:18;;;;;;;3.58;2.60;;;23.00;53.10;;;;;;6215693;28;80655;-69
2022/06/02 00:30:19;;;;;;;4.35;2.50;;;22.90;53.60;;;;;;6224541;28;81724;-70
2022/06/02 00:33:21;;;;;;;5.78;2.47;;;23.00;53.40;;;;;;6213073;28;83321;-69
2022/06/02 00:36:21;;;;;;;4.00;2.60;;;23.00;53.70;;;;;;6206845;28;81466;-69
2022/06/02 00:39:22;;;;;;;2.55;2.10;;;23.00;53.90;;;;;;6224394;28;80132;-69
2022/06/02 00:42:22;;;;;;;3.08;2.47;;;22.90;53.60;;;;;;6218114;28;80599;-69
2022/06/02 00:45:23;;;;;;;5.47;2.55;;;23.00;54.00;;;;;;6233088;28;80563;-69
2022/06/02 00:48:23;;;;;;;5.85;2.75;;;23.00;53.90;;;;;;6221280;28;80126;-69
2022/06/02 00:51:24;;;;;;;3.13;2.50;;;23.00;53.90;;;;;;6222732;28;80528;-69
2022/06/02 00:57:43;;;;;;;4.15;2.55;;;23.00;53.60;;;;;;6221229;28;80414;-69
2022/06/02 01:00:44;;;;;;;4.28;2.47;;;23.00;53.40;;;;;;6220133;28;81228;-69
2022/06/02 01:03:45;;;;;;;4.05;2.33;;;22.90;53.50;;;;;;6217937;28;80335;-69
2022/06/02 01:06:45;;;;;;;4.53;2.70;;;22.90;53.50;;;;;;6214843;28;80228;-69
2022/06/02 01:09:46;;;;;;;3.30;2.25;;;23.00;53.80;;;;;;6230696;28;80508;-68
2022/06/02 01:12:46;;;;;;;4.28;2.20;;;22.90;54.20;;;;;;6210763;28;80262;-68
2022/06/02 01:15:47;;;;;;;2.97;2.40;;;22.90;53.80;;;;;;6235066;28;80880;-69
2022/06/02 01:18:47;;;;;;;3.55;2.33;;;22.90;54.20;;;;;;6234076;28;80826;-69
2022/06/02 01:21:48;;;;;;;7.78;3.25;;;22.90;54.00;;;;;;6190604;28;80637;-68
2022/06/02 01:24:48;;;;;;;3.85;2.08;;;22.90;54.30;;;;;;6203242;28;81462;-69
2022/06/02 01:27:49;;;;;;;5.03;2.55;;;22.90;53.90;;;;;;6222966;28;80146;-68
2022/06/02 01:30:49;;;;;;;4.75;2.30;;;22.90;54.10;;;;;;6221602;28;80379;-69
2022/06/02 01:33:50;;;;;;;4.25;2.58;;;22.90;53.90;;;;;;6228583;28;80602;-69
2022/06/02 01:36:50;;;;;;;5.38;2.50;;;22.90;54.30;;;;;;6227217;28;80783;-68
2022/06/02 01:39:50;;;;;;;4.25;2.42;;;22.90;54.30;;;;;;6219501;28;80371;-68
2022/06/02 01:42:51;;;;;;;4.10;2.72;;;22.90;54.50;;;;;;6220747;28;80497;-69
2022/06/02 01:45:51;;;;;;;6.20;2.47;;;22.90;54.20;;;;;;6222811;28;80349;-70
2022/06/02 01:48:52;;;;;;;4.20;2.35;;;22.90;54.40;;;;;;6219147;28;81467;-69
2022/06/02 01:51:52;;;;;;;3.63;2.33;;;22.90;54.30;;;;;;6229830;28;80211;-69
2022/06/02 01:54:53;;;;;;;4.38;2.80;;;22.90;54.40;;;;;;6233525;28;80773;-68
2022/06/02 01:57:55;;;;;;;4.10;2.50;;;22.90;54.00;;;;;;6228093;28;80613;-69
2022/06/02 02:00:55;;;;;;;4.43;2.63;;;22.90;54.40;;;;;;6233641;28;80537;-69
2022/06/02 02:03:56;;;;;;;5.28;2.80;;;22.90;54.00;;;;;;6231253;28;80322;-68
2022/06/02 02:06:56;;;;;;;4.10;2.55;;;22.90;54.10;;;;;;6225917;28;80770;-68
2022/06/02 02:09:57;;;;;;;5.75;2.80;;;22.90;54.60;;;;;;6227559;28;80513;-68
2022/06/02 02:12:58;;;;;;;4.95;2.45;;;22.90;54.20;;;;;;6224864;28;80869;-68
2022/06/02 02:15:59;;;;;;;5.10;2.40;;;22.90;54.10;;;;;;6224073;28;81518;-68
2022/06/02 02:18:59;;;;;;;3.50;2.50;;;22.90;54.20;;;;;;6217468;28;80835;-68
2022/06/02 02:22:00;;;;;;;3.60;2.50;;;22.90;54.50;;;;;;6233413;28;80636;-68
2022/06/02 02:25:00;;;;;;;3.22;2.47;;;22.90;54.40;;;;;;6226865;28;80472;-67
2022/06/02 02:28:04;;;;;;;3.70;2.35;;;22.90;54.30;;;;;;6208197;28;81592;-68
2022/06/02 02:31:04;;;;;;;3.90;2.28;;;22.90;54.50;;;;;;6226629;28;81479;-68
2022/06/02 02:34:05;;;;;;;3.22;2.25;;;22.90;54.80;;;;;;6223859;28;80480;-68
2022/06/02 02:37:05;;;;;;;7.18;3.00;;;22.90;54.40;;;;;;6226367;28;81713;-68
2022/06/02 02:40:06;;;;;;;3.13;2.58;;;22.90;55.00;;;;;;6221323;28;80221;-68
2022/06/02 02:43:06;;;;;;;3.22;2.22;;;22.90;55.00;;;;;;6234003;28;80329;-68
2022/06/02 02:46:07;;;;;;;3.28;2.33;;;22.90;54.70;;;;;;6226408;28;80256;-68
2022/06/02 02:49:07;;;;;;;4.55;2.47;;;22.90;54.90;;;;;;6226066;28;80532;-68
2022/06/02 02:52:08;;;;;;;3.20;2.42;;;22.90;55.10;;;;;;6215806;28;80339;-67
2022/06/02 02:55:08;;;;;;;3.97;2.40;;;22.80;55.00;;;;;;6226280;28;80850;-68
2022/06/02 02:58:09;;;;;;;3.33;2.28;;;22.90;55.10;;;;;;6232163;28;80347;-68
2022/06/02 03:01:10;;;;;;;3.10;2.40;;;22.80;55.20;;;;;;6225401;28;82090;-66
2022/06/02 03:04:11;;;;;;;4.15;2.28;;;22.90;55.20;;;;;;6227475;28;80176;-66
2022/06/02 03:07:11;;;;;;;4.65;2.70;;;22.80;55.40;;;;;;6212600;28;80620;-65
2022/06/02 03:10:11;;;;;;;4.57;2.40;;;22.90;55.30;;;;;;6218265;28;80778;-66
2022/06/02 03:13:12;;;;;;;4.97;2.65;;;22.90;55.30;;;;;;6213248;28;80554;-66
2022/06/02 03:16:12;;;;;;;4.68;2.60;;;22.90;55.20;;;;;;6211818;28;80154;-66
2022/06/02 03:19:13;;;;;;;4.50;2.58;;;22.90;55.10;;;;;;6210386;28;81637;-66
2022/06/02 03:22:13;;;;;;;3.22;2.25;;;22.90;55.10;;;;;;6231812;28;80206;-66
2022/06/02 03:25:14;;;;;;;3.40;2.50;;;22.80;55.10;;;;;;6215835;28;80465;-66
2022/06/02 03:28:15;;;;;;;5.20;2.58;;;22.80;55.00;;;;;;6227614;28;80905;-66
2022/06/02 03:31:15;;;;;;;3.30;2.25;;;22.80;55.20;;;;;;6231638;28;80254;-66
2022/06/02 03:34:16;;;;;;;2.90;2.08;;;22.80;55.30;;;;;;6227919;28;80740;-66
2022/06/02 03:37:16;;;;;;;3.28;2.22;;;22.80;55.20;;;;;;6217105;28;82993;-66
2022/06/02 03:40:17;;;;;;;5.78;2.95;;;22.80;55.10;;;;;;6209118;28;80508;-66
2022/06/02 03:43:17;;;;;;;4.90;2.55;;;22.80;55.30;;;;;;6229322;28;80298;-66
2022/06/02 03:46:18;;;;;;;4.47;2.42;;;22.80;55.30;;;;;;6226471;28;80474;-65
2022/06/02 03:49:18;;;;;;;3.35;2.30;;;22.80;55.30;;;;;;6228750;28;81633;-65
2022/06/02 03:52:19;;;;;;;3.33;2.47;;;22.80;55.30;;;;;;6217027;28;80225;-66
2022/06/02 03:55:19;;;;;;;3.70;2.25;;;22.80;55.60;;;;;;6219503;28;81112;-67
2022/06/02 03:58:20;;;;;;;5.93;2.60;;;22.80;55.80;;;;;;6213329;28;80617;-64
2022/06/02 04:01:20;;;;;;;6.25;2.35;;;22.80;55.80;;;;;;6218056;28;80583;-66
2022/06/02 04:04:21;;;;;;;4.70;2.63;;;22.80;55.80;;;;;;6220170;28;80517;-66
2022/06/02 04:07:22;;;;;;;4.82;2.33;;;22.80;56.00;;;;;;6220766;28;80780;-66
2022/06/02 04:10:23;;;;;;;5.55;2.20;;;22.80;56.30;;;;;;6225494;28;80514;-69
2022/06/02 04:13:39;;;;;;;12.70;2.65;;;22.80;56.80;;;;;;6226780;28;80719;-67
2022/06/02 04:16:40;;;;;;;5.00;2.45;;;22.80;57.40;;;;;;6229146;28;80682;-68
2022/06/02 04:23:00;;;;;;;6.22;2.65;;;22.70;57.90;;;;;;6229940;28;85041;-66
2022/06/02 04:26:00;;;;;;;5.15;2.60;;;22.70;57.90;;;;;;6231109;28;80369;-67
2022/06/02 04:29:01;;;;;;;5.53;2.58;;;22.80;58.20;;;;;;6214165;28;80493;-68
2022/06/02 04:32:01;;;;;;;5.00;2.72;;;22.80;57.90;;;;;;6230550;28;81612;-69
2022/06/02 04:35:02;;;;;;;7.22;2.97;;;22.80;58.40;;;;;;6231634;28;80376;-69
2022/06/02 04:38:02;;;;;;;10.40;2.70;;;22.80;58.40;;;;;;6209758;28;81256;-69
2022/06/02 04:41:03;;;;;;;5.60;2.35;;;22.80;58.40;;;;;;6215801;28;80716;-68
2022/06/02 04:44:03;;;;;;;9.07;2.15;;;22.80;58.40;;;;;;6226900;28;80416;-71
2022/06/02 04:47:04;;;;;;;5.32;2.10;;;22.90;58.00;;;;;;6230623;28;80605;-70
2022/06/02 04:50:04;;;;;;;4.07;2.20;;;22.80;58.30;;;;;;6232625;28;80655;-71
2022/06/02 04:53:05;;;;;;;7.28;2.58;;;22.90;58.20;;;;;;6224953;28;80612;-70
2022/06/02 04:56:07;;;;;;;5.82;2.10;;;22.90;58.00;;;;;;6225340;28;80471;-69
2022/06/02 04:59:10;;;;;;;12.13;2.80;;;22.90;57.90;;;;;;6228577;28;80576;-70
2022/06/02 05:02:11;;;;;;;5.32;2.78;;;22.90;57.80;;;;;;6230145;28;80226;-73
2022/06/02 05:05:11;;;;;;;6.90;2.60;;;22.90;58.20;;;;;;6232480;28;80423;-69
2022/06/02 05:08:12;;;;;;;8.25;2.20;;;23.00;58.30;;;;;;6226858;28;80336;-70
2022/06/02 05:11:13;;;;;;;4.15;2.47;;;23.00;58.10;;;;;;6229264;28;80167;-70
2022/06/02 05:14:14;;;;;;;4.25;2.50;;;23.00;57.90;;;;;;6224124;28;80857;-69
2022/06/02 05:17:14;;;;;;;12.02;2.95;;;23.00;57.90;;;;;;6197858;28;82776;-69
2022/06/02 05:20:15;;;;;;;5.25;2.50;;;23.00;57.80;;;;;;6225946;28;80524;-69
2022/06/02 05:23:15;;;;;;;5.32;2.28;;;22.90;57.50;;;;;;6231338;28;80858;-69
2022/06/02 05:26:16;;;;;;;6.63;2.58;;;22.90;57.50;;;;;;6223273;28;80927;-68
2022/06/02 05:29:16;;;;;;;5.03;2.20;;;22.90;57.40;;;;;;6216278;28;82478;-69
2022/06/02 05:32:17;;;;;;;4.93;2.70;;;22.90;57.40;;;;;;6232180;28;80423;-70
2022/06/02 05:35:17;;;;;;;6.28;2.63;;;22.90;57.40;;;;;;6226022;28;80482;-71
2022/06/02 05:38:18;;;;;;;5.82;2.45;;;22.90;57.40;;;;;;6226849;28;80356;-68
2022/06/02 05:41:18;;;;;;;4.60;3.08;;;22.90;58.00;;;;;;6231074;28;80441;-68
2022/06/02 05:44:19;;;;;;;5.55;2.92;;;22.90;58.30;;;;;;6212938;28;80464;-68
2022/06/02 05:47:19;;;;;;;3.72;2.67;;;22.80;58.70;;;;;;6221370;28;80597;-68
2022/06/02 05:50:20;;;;;;;5.75;3.20;;;22.80;59.60;;;;;;6215681;28;80558;-68
2022/06/02 05:53:20;;;;;;;5.50;3.05;;;22.80;59.40;;;;;;6231170;28;80568;-68
2022/06/02 05:56:21;;;;;;;9.90;2.72;;;22.70;59.80;;;;;;6191471;28;81018;-68
2022/06/02 05:59:21;;;;;;;4.38;2.60;;;22.70;59.80;;;;;;6226886;28;80519;-68
2022/06/02 06:02:22;;;;;;;3.85;2.95;;;22.70;60.00;;;;;;6228617;28;80494;-68
2022/06/02 06:05:23;;;;;;;7.30;2.75;;;22.70;59.60;;;;;;6216541;28;80859;-68
2022/06/02 06:08:23;;;;;;;4.78;2.53;;;22.70;59.90;;;;;;6226649;28;80843;-68
2022/06/02 06:11:23;;;;;;;5.43;2.50;;;22.70;59.90;;;;;;6223156;28;80411;-68
2022/06/02 06:14:24;;;;;;;7.78;2.72;;;22.70;60.30;;;;;;6201222;28;80642;-68
2022/06/02 06:17:24;;;;;;;5.10;2.20;;;22.70;60.40;;;;;;6217797;28;80880;-67
2022/06/02 06:20:25;;;;;;;10.10;2.47;;;22.60;60.10;;;;;;6229556;28;80607;-68
2022/06/02 06:23:25;;;;;;;5.55;2.28;;;22.60;60.60;;;;;;6218398;28;80189;-68
2022/06/02 06:26:26;;;;;;;3.65;2.35;;;22.70;60.70;;;;;;6222262;28;80663;-68
2022/06/02 06:29:27;;;;;;;3.40;2.25;;;22.60;60.80;;;;;;6219089;28;80640;-68
2022/06/02 06:32:28;;;;;;;2.80;2.08;;;22.60;61.00;;;;;;6222771;28;80662;-68
2022/06/02 06:35:28;;;;;;;5.60;2.33;;;22.70;61.20;;;;;;6222498;28;81262;-68
2022/06/02 06:38:28;;;;;;;3.47;2.38;;;22.60;61.10;;;;;;6214028;28;81132;-68
2022/06/02 06:41:29;;;;;;;6.40;2.67;;;22.70;61.40;;;;;;6225171;28;80661;-69
2022/06/02 06:44:29;;;;;;;6.75;2.85;;;22.70;61.60;;;;;;6217667;28;80414;-68
2022/06/02 06:47:30;;;;;;;3.83;2.63;;;22.70;61.40;;;;;;6232936;28;80728;-68
2022/06/02 06:50:31;;;;;;;5.88;2.30;;;22.70;61.70;;;;;;6216931;28;81768;-68
2022/06/02 06:53:32;;;;;;;8.05;3.30;;;22.70;61.40;;;;;;6222378;28;81788;-68
2022/06/02 06:56:33;;;;;;;6.80;2.22;;;22.70;61.50;;;;;;6232450;28;87188;-69
2022/06/02 06:59:33;;;;;;;3.38;2.15;;;22.70;61.20;;;;;;6224277;28;80866;-68
2022/06/02 07:02:34;;;;;;;1.92;1.75;;;22.70;61.70;;;;;;6187033;28;81360;-68
2022/06/02 07:05:35;;;;;;;7.28;2.20;;;22.70;61.20;;;;;;6227804;28;80072;-68
2022/06/02 07:08:35;;;;;;;4.40;1.95;;;22.70;61.80;;;;;;6233005;28;81049;-68
2022/06/02 07:14:55;;;;;;;6.50;2.10;;;22.70;62.30;;;;;;6226315;28;80578;-67
2022/06/02 07:17:56;;;;;;;5.47;2.20;;;22.80;62.00;;;;;;6222202;28;80603;-68
2022/06/02 07:20:56;;;;;;;3.75;3.08;;;22.70;62.20;;;;;;6228102;28;80722;-67
2022/06/02 07:23:57;;;;;;;8.25;2.17;;;22.80;62.60;;;;;;6222674;28;80579;-68
2022/06/02 07:26:57;;;;;;;3.15;2.15;;;22.80;62.90;;;;;;6232332;28;80536;-68
2022/06/02 07:29:58;;;;;;;3.10;2.13;;;22.80;63.00;;;;;;6226977;28;80302;-66
2022/06/02 07:33:02;;;;;;;2.53;2.05;;;22.80;62.40;;;;;;6226739;28;80418;-66
2022/06/02 07:36:03;;;;;;;3.50;2.10;;;22.90;62.70;;;;;;6203382;28;85672;-65
2022/06/02 07:39:03;;;;;;;5.70;2.55;;;22.90;62.50;;;;;;6232323;28;80924;-65
2022/06/02 07:42:04;;;;;;;4.63;2.00;;;22.90;62.30;;;;;;6228287;28;80407;-66
2022/06/02 07:45:05;;;;;;;3.88;1.73;;;23.00;62.00;;;;;;6208042;28;81662;-66
2022/06/02 07:48:05;;;;;;;2.65;1.73;;;22.80;62.00;;;;;;6227159;28;80498;-66
2022/06/02 07:51:06;;;;;;;2.00;1.63;;;22.80;62.90;;;;;;6229755;28;80900;-66
2022/06/02 07:54:06;;;;;;;2.85;1.88;;;22.80;62.30;;;;;;6230754;28;80743;-65
2022/06/02 07:57:07;;;;;;;7.95;2.92;;;22.70;62.90;;;;;;6203446;28;83161;-65
2022/06/02 08:00:09;;;;;;;5.93;2.53;;;22.70;62.90;;;;;;6218456;28;80931;-64
2022/06/02 08:03:15;;;;;;;8.90;2.10;;;22.80;63.10;;;;;;6200395;28;80539;-64
2022/06/02 08:06:15;;;;;;;13.40;2.75;;;22.80;63.20;;;;;;6213112;28;80305;-65
2022/06/02 08:09:16;;;;;;;3.92;2.00;;;22.90;63.00;;;;;;6204096;28;80378;-65
2022/06/02 08:12:16;;;;;;;3.20;1.88;;;23.00;63.00;;;;;;6223585;28;80847;-66
2022/06/02 08:15:17;;;;;;;9.25;3.10;;;23.00;62.80;;;;;;6222311;28;80186;-66
2022/06/02 08:18:18;;;;;;;6.53;1.92;;;23.00;62.70;;;;;;6228082;28;80511;-65
2022/06/02 08:21:19;;;;;;;3.00;1.83;;;22.90;61.10;;;;;;6195627;28;81843;-66
2022/06/02 08:24:19;;;;;;;5.40;2.28;;;22.80;61.40;;;;;;6226108;28;80558;-67
2022/06/02 08:27:20;;;;;;;5.63;2.38;;;22.90;61.40;;;;;;6214628;28;81521;-66
2022/06/02 08:30:20;;;;;;;2.67;1.85;;;22.90;61.20;;;;;;6219680;28;80632;-66
2022/06/02 08:33:21;;;;;;;3.13;2.17;;;23.00;61.50;;;;;;6215109;28;80393;-66
2022/06/02 08:36:22;;;;;;;2.35;1.63;;;23.00;61.20;;;;;;6219575;28;80727;-66
2022/06/02 08:39:23;;;;;;;2.35;1.50;;;23.10;60.20;;;;;;6218348;28;80369;-66
2022/06/02 08:42:23;;;;;;;2.47;1.77;;;23.20;60.10;;;;;;6197011;28;83064;-65
2022/06/02 08:45:24;;;;;;;4.55;2.35;;;23.20;59.90;;;;;;6219972;28;81227;-66
2022/06/02 08:48:24;;;;;;;4.00;2.15;;;23.20;60.30;;;;;;6219466;28;80280;-66
2022/06/02 08:51:25;;;;;;;3.47;2.08;;;23.20;59.90;;;;;;6218682;28;80936;-67
2022/06/02 08:54:25;;;;;;;8.32;2.58;;;23.30;59.90;;;;;;6219289;28;80296;-65
2022/06/02 08:57:26;;;;;;;3.42;2.58;;;23.30;60.30;;;;;;6227464;28;80306;-65
2022/06/02 09:00:26;;;;;;;3.15;2.45;;;23.30;60.60;;;;;;6224004;28;80514;-67
2022/06/02 09:03:27;;;;;;;3.17;2.35;;;23.40;60.30;;;;;;6221028;28;80817;-65
2022/06/02 09:06:27;;;;;;;5.60;2.60;;;23.40;60.40;;;;;;6232315;28;80258;-64
2022/06/02 09:09:28;;;;;;;7.72;3.10;;;23.40;60.60;;;;;;6232254;28;80718;-64
2022/06/02 09:12:29;;;;;;;4.97;2.85;;;23.40;61.30;;;;;;6224957;28;80159;-64
2022/06/02 09:15:29;;;;;;;5.00;2.92;;;23.40;61.70;;;;;;6228327;28;80576;-65
2022/06/02 09:18:30;;;;;;;5.75;3.30;;;23.40;61.80;;;;;;6232285;28;80551;-66
2022/06/02 09:21:30;;;;;;;6.03;2.92;;;23.40;62.80;;;;;;6229651;28;81084;-66
2022/06/02 09:24:31;;;;;;;3.63;2.53;;;23.50;62.70;;;;;;6227038;28;80139;-66
2022/06/02 09:27:31;;;;;;;3.08;2.20;;;23.50;62.60;;;;;;6232109;28;80605;-67
2022/06/02 09:30:32;;;;;;;4.53;2.85;;;23.60;62.80;;;;;;6223655;28;81489;-66
2022/06/02 09:33:37;;;;;;;3.90;2.83;;;23.60;62.80;;;;;;6209007;28;80385;-66
2022/06/02 09:36:38;;;;;;;3.33;2.63;;;23.70;63.00;;;;;;6216276;28;80368;-66
2022/06/02 09:39:39;;;;;;;6.10;3.40;;;23.70;63.10;;;;;;6228671;28;80942;-66
2022/06/02 09:42:40;;;;;;;5.38;2.55;;;23.70;62.60;;;;;;6229569;28;80428;-65
2022/06/02 09:45:40;;;;;;;4.85;2.70;;;23.70;62.10;;;;;;6225777;28;80685;-66
2022/06/02 09:48:41;;;;;;;5.05;2.78;;;23.70;62.70;;;;;;6233694;28;80557;-65
2022/06/02 09:51:41;;;;;;;11.80;2.72;;;23.70;60.60;;;;;;6226341;28;80450;-65
2022/06/02 09:54:42;;;;;;;2.85;2.50;;;23.70;60.90;;;;;;6227272;28;80600;-65
2022/06/02 09:57:58;;;;;;;4.18;2.88;;;23.70;61.10;;;;;;6217570;28;80902;-65
2022/06/02 10:00:58;;;;;;;3.75;2.13;;;23.70;61.50;;;;;;6207934;28;81906;-65
2022/06/02 10:03:59;;;;;;;7.55;3.40;;;23.60;60.60;;;;;;6224118;28;80009;-65
2022/06/02 10:06:59;;;;;;;5.70;3.00;;;23.60;62.60;;;;;;6223506;28;80426;-65
2022/06/02 10:10:00;;;;;;;4.75;3.00;;;23.50;64.00;;;;;;6203403;28;81290;-65
2022/06/02 10:13:01;;;;;;;9.55;4.00;;;23.50;60.70;;;;;;6223302;28;80956;-65
2022/06/02 10:16:03;;;;;;;5.50;3.67;;;23.40;61.40;;;;;;6222093;28;80604;-65
2022/06/02 10:19:04;;;;;;;7.05;4.50;;;23.40;61.90;;;;;;6215344;28;80296;-66
2022/06/02 10:22:04;;;;;;;11.07;4.20;;;23.40;61.70;;;;;;6221652;28;80262;-65
2022/06/02 10:25:05;;;;;;;8.38;4.97;;;23.40;62.60;;;;;;6232240;28;80791;-64
2022/06/02 10:28:05;;;;;;;8.63;4.20;;;23.40;62.00;;;;;;6227980;28;80962;-65
2022/06/02 10:31:06;;;;;;;5.78;3.40;;;23.40;60.10;;;;;;6219412;28;80483;-66
2022/06/02 10:34:06;;;;;;;6.07;3.58;;;23.50;60.70;;;;;;6215830;28;80329;-65
2022/06/02 10:37:07;;;;;;;6.07;4.20;;;23.50;61.30;;;;;;6214425;28;80219;-64
2022/06/02 10:40:08;;;;;;;6.78;3.17;;;23.50;60.80;;;;;;6225750;28;80816;-64
2022/06/02 10:43:08;;;;;;;8.60;4.60;;;23.50;61.10;;;;;;6220169;28;81320;-64
2022/06/02 10:46:09;;;;;;;8.88;4.50;;;23.50;60.70;;;;;;6213000;28;80899;-64
2022/06/02 10:49:09;;;;;;;6.78;3.55;;;23.60;59.70;;;;;;6215166;28;81803;-64
2022/06/02 10:52:10;;;;;;;12.95;3.80;;;23.50;59.40;;;;;;6212954;28;83217;-65
2022/06/02 10:55:10;;;;;;;5.68;3.63;;;23.50;59.40;;;;;;6217455;28;80850;-66
2022/06/02 10:58:11;;;;;;;6.10;3.28;;;23.40;58.00;;;;;;6230756;28;81570;-64
2022/06/02 11:01:12;;;;;;;7.18;3.60;;;23.40;58.00;;;;;;6223003;28;80282;-64
2022/06/02 11:04:13;;;;;;;10.60;5.97;;;23.40;56.60;;;;;;6231537;28;80666;-64
2022/06/02 11:07:13;;;;;;;15.73;7.18;;;23.40;56.70;;;;;;6218662;28;81491;-64
2022/06/02 11:10:14;;;;;;;14.75;7.38;;;23.40;56.80;;;;;;6212698;28;80620;-64
2022/06/02 11:13:14;;;;;;;50.33;20.38;;;23.30;56.70;;;;;;6215445;28;81475;-64
2022/06/02 11:16:15;;;;;;;44.80;19.98;;;23.40;58.60;;;;;;6225779;28;83329;-64
2022/06/02 11:19:15;;;;;;;38.65;16.15;;;23.50;58.10;;;;;;6218543;28;83247;-65
2022/06/02 11:22:16;;;;;;;64.10;22.42;;;23.50;57.40;;;;;;6229794;28;83143;-64
2022/06/02 11:25:16;;;;;;;39.60;15.00;;;23.50;57.50;;;;;;6220612;28;83051;-64
2022/06/02 11:28:17;;;;;;;28.83;11.85;;;23.50;56.30;;;;;;6217008;28;82592;-65
2022/06/02 11:31:18;;;;;;;49.20;19.98;;;23.50;55.70;;;;;;6225815;28;82945;-66
2022/06/02 11:34:19;;;;;;;28.13;10.18;;;23.50;56.40;;;;;;6229479;28;83140;-65
2022/06/02 11:37:19;;;;;;;8.90;5.18;;;23.50;56.60;;;;;;6225069;28;83481;-65
2022/06/02 11:40:20;;;;;;;8.40;3.65;;;23.40;55.20;;;;;;6232877;28;82817;-66
2022/06/02 11:43:26;;;;;;;10.75;4.38;;;23.40;55.60;;;;;;6232958;28;80380;-64
2022/06/02 11:46:27;;;;;;;7.32;3.58;;;23.40;55.70;;;;;;6225249;28;80468;-66
2022/06/02 11:49:27;;;;;;;5.68;3.95;;;23.40;55.10;;;;;;6194753;28;83447;-64
2022/06/02 11:52:28;;;;;;;6.78;3.53;;;23.40;55.50;;;;;;6219023;28;80554;-64
2022/06/02 11:55:28;;;;;;;7.65;3.75;;;23.40;55.60;;;;;;6232635;28;80145;-65
2022/06/02 11:58:29;;;;;;;7.65;3.58;;;23.40;55.20;;;;;;6213974;28;83148;-64
2022/06/02 12:01:29;;;;;;;5.55;3.60;;;23.40;54.20;;;;;;6232144;28;80892;-64
2022/06/02 12:04:31;;;;;;;5.80;3.15;;;23.40;55.00;;;;;;6220089;28;81213;-65
2022/06/02 12:07:31;;;;;;;3.70;3.15;;;23.40;54.60;;;;;;6221640;28;80966;-65
2022/06/02 12:10:32;;;;;;;4.90;3.70;;;23.30;54.00;;;;;;6225785;28;81029;-64
2022/06/02 12:13:33;;;;;;;8.18;3.42;;;23.30;53.00;;;;;;6219563;28;81131;-64
2022/06/02 12:16:33;;;;;;;4.95;3.47;;;23.30;53.50;;;;;;6216085;28;80407;-65
2022/06/02 12:19:34;;;;;;;11.23;3.17;;;23.40;53.40;;;;;;6221886;28;81525;-65
2022/06/02 12:22:34;;;;;;;5.78;3.38;;;23.40;53.50;;;;;;6219287;28;80542;-65
2022/06/02 12:25:35;;;;;;;4.03;2.80;;;23.40;53.10;;;;;;6216438;28;80260;-65
2022/06/02 12:28:35;;;;;;;5.07;3.08;;;23.40;52.90;;;;;;6217757;28;80926;-65
2022/06/02 12:31:35;;;;;;;3.70;3.08;;;23.40;52.60;;;;;;6225739;28;80328;-65
2022/06/02 12:34:36;;;;;;;3.45;2.80;;;23.40;53.00;;;;;;6221644;28;81589;-64
2022/06/02 12:37:36;;;;;;;4.63;2.63;;;23.50;52.90;;;;;;6225424;28;80367;-65
2022/06/02 12:40:37;;;;;;;3.78;2.65;;;23.40;53.20;;;;;;6225474;28;83526;-67
2022/06/02 12:43:37;;;;;;;3.17;2.40;;;23.40;52.70;;;;;;6214786;28;80503;-64
2022/06/02 12:46:38;;;;;;;4.55;3.25;;;23.40;53.00;;;;;;6228691;28;80263;-64
2022/06/02 12:49:38;;;;;;;9.70;4.68;;;23.40;53.00;;;;;;6216932;28;80362;-64
2022/06/02 12:52:39;;;;;;;5.68;2.95;;;23.40;52.50;;;;;;6227280;28;80515;-64
2022/06/02 12:55:40;;;;;;;6.25;3.30;;;23.40;52.40;;;;;;6224336;28;81498;-64
2022/06/02 12:58:41;;;;;;;5.88;3.17;;;23.50;52.60;;;;;;6227874;28;80386;-64
2022/06/02 13:01:41;;;;;;;4.78;2.75;;;23.40;51.60;;;;;;6217749;28;80808;-65
2022/06/02 13:04:42;;;;;;;10.98;2.80;;;23.40;51.10;;;;;;6227015;28;80276;-64
2022/06/02 13:07:45;;;;;;;3.28;2.58;;;23.40;51.10;;;;;;6218714;28;81035;-64
2022/06/02 13:10:46;;;;;;;4.50;2.63;;;23.40;51.00;;;;;;6218339;28;85843;-67
2022/06/02 13:13:48;;;;;;;5.70;2.53;;;23.40;49.40;;;;;;6203586;28;82586;-65
2022/06/02 13:16:48;;;;;;;3.58;2.65;;;23.40;49.60;;;;;;6213403;28;80656;-65
2022/06/02 13:19:49;;;;;;;5.00;2.92;;;23.40;49.20;;;;;;6224910;28;82262;-65
2022/06/02 13:22:49;;;;;;;7.07;3.15;;;23.40;49.90;;;;;;6234686;28;80199;-66
2022/06/02 13:25:50;;;;;;;4.85;3.17;;;23.40;50.00;;;;;;6233460;28;81709;-67
2022/06/02 13:28:50;;;;;;;5.55;2.47;;;23.50;50.10;;;;;;6234673;28;80301;-66
2022/06/02 13:31:51;;;;;;;5.90;3.05;;;23.50;50.10;;;;;;6225098;28;81642;-66
2022/06/02 13:34:51;;;;;;;3.22;2.30;;;23.50;49.00;;;;;;6234204;28;80266;-66
2022/06/02 13:37:52;;;;;;;3.15;2.40;;;23.50;49.10;;;;;;6219335;28;80895;-66
2022/06/02 13:40:52;;;;;;;5.53;2.40;;;23.50;48.60;;;;;;6225822;28;80184;-67
2022/06/02 13:43:53;;;;;;;3.38;2.50;;;23.50;49.10;;;;;;6219388;28;80313;-66
2022/06/02 13:46:54;;;;;;;3.75;2.42;;;23.50;48.70;;;;;;6219936;28;80520;-65
2022/06/02 13:49:55;;;;;;;5.55;2.40;;;23.40;48.60;;;;;;6223518;28;80418;-67
2022/06/02 13:52:55;;;;;;;3.50;2.60;;;23.50;49.70;;;;;;6212664;28;80452;-66
2022/06/02 13:59:15;;;;;;;4.53;2.03;;;23.40;49.40;;;;;;6214723;28;80648;-65
2022/06/02 14:02:15;;;;;;;16.60;2.60;;;23.50;48.90;;;;;;6219144;28;80597;-65
2022/06/02 14:05:16;;;;;;;2.38;1.92;;;23.50;48.80;;;;;;6199717;28;82816;-63
2022/06/02 14:08:16;;;;;;;2.88;2.10;;;23.50;48.80;;;;;;6198828;28;80785;-64
2022/06/02 14:11:17;;;;;;;2.22;2.03;;;23.50;48.80;;;;;;6226063;28;80492;-66
2022/06/02 14:14:17;;;;;;;5.07;2.00;;;23.50;48.90;;;;;;6216285;28;80785;-67
2022/06/02 14:17:18;;;;;;;3.22;1.75;;;23.50;48.70;;;;;;6206297;28;80313;-66
2022/06/02 14:20:18;;;;;;;2.80;2.03;;;23.50;48.90;;;;;;6219717;28;80304;-65
2022/06/02 14:23:19;;;;;;;2.72;1.70;;;23.50;48.40;;;;;;6226809;28;79991;-67
2022/06/02 14:26:22;;;;;;;3.60;1.80;;;23.60;48.70;;;;;;6217065;28;80459;-66
2022/06/02 14:29:24;;;;;;;2.15;1.60;;;23.60;48.70;;;;;;6228049;28;80470;-65
2022/06/02 14:32:25;;;;;;;2.75;1.90;;;23.60;48.30;;;;;;6228529;28;81111;-67
2022/06/02 14:35:25;;;;;;;3.75;1.65;;;23.70;48.50;;;;;;6216370;28;80411;-65
2022/06/02 14:38:26;;;;;;;2.40;1.98;;;23.60;48.20;;;;;;6229349;28;80899;-65
2022/06/02 14:41:27;;;;;;;2.05;1.85;;;23.70;47.30;;;;;;6225354;28;80727;-66
2022/06/02 14:44:28;;;;;;;2.15;1.73;;;23.60;48.60;;;;;;6214138;28;81253;-64
2022/06/02 14:47:28;;;;;;;5.03;2.20;;;23.70;48.10;;;;;;6215342;28;81122;-67
2022/06/02 14:50:29;;;;;;;5.47;2.17;;;23.60;47.60;;;;;;6211765;28;80411;-64
2022/06/02 14:53:29;;;;;;;3.25;1.67;;;23.70;47.10;;;;;;6224746;28;82691;-66
2022/06/02 14:56:30;;;;;;;3.35;2.38;;;23.60;45.90;;;;;;6224512;28;80540;-65
2022/06/02 14:59:30;;;;;;;13.70;2.85;;;23.60;46.30;;;;;;6227667;28;80853;-66
2022/06/02 15:02:31;;;;;;;4.47;1.92;;;23.50;46.00;;;;;;6220637;28;80471;-67
2022/06/02 15:05:32;;;;;;;16.90;2.63;;;23.50;46.20;;;;;;6225475;28;80305;-67
2022/06/02 15:08:32;;;;;;;2.40;1.98;;;23.50;47.00;;;;;;6214984;28;81427;-67
2022/06/02 15:11:33;;;;;;;2.42;1.88;;;23.50;46.10;;;;;;6223334;28;80478;-68
2022/06/02 15:14:33;;;;;;;5.95;2.60;;;23.60;46.10;;;;;;6227594;28;80700;-66
2022/06/02 15:17:34;;;;;;;3.60;2.08;;;23.60;46.30;;;;;;6223017;28;80515;-66
2022/06/02 15:20:34;;;;;;;11.95;2.85;;;23.60;46.90;;;;;;6216697;28;80412;-66
2022/06/02 15:23:35;;;;;;;2.25;1.90;;;23.60;46.10;;;;;;6213102;28;81038;-65
2022/06/02 15:26:36;;;;;;;5.05;2.40;;;23.50;44.40;;;;;;6212455;28;80431;-66
2022/06/02 15:29:36;;;;;;;1.90;1.60;;;23.50;45.30;;;;;;6215231;28;81769;-65
2022/06/02 15:32:37;;;;;;;4.40;2.08;;;23.50;45.40;;;;;;6211795;28;80431;-66
2022/06/02 15:35:37;;;;;;;3.30;2.22;;;23.50;44.90;;;;;;6218714;28;80431;-66
2022/06/02 15:38:38;;;;;;;3.95;2.10;;;23.60;45.00;;;;;;6210812;28;82331;-66
2022/06/02 15:41:38;;;;;;;1.90;1.70;;;23.50;45.40;;;;;;6223207;28;80737;-66
2022/06/02 15:44:40;;;;;;;2.38;1.92;;;23.50;44.60;;;;;;6230428;28;80767;-66
2022/06/02 15:47:40;;;;;;;4.00;1.70;;;23.50;43.70;;;;;;6231120;28;80341;-66
2022/06/02 15:50:41;;;;;;;6.50;2.10;;;23.50;44.30;;;;;;6205041;28;80450;-65